Time;durP1;ratioP1;P1;durP2;ratioP2;P2;SDS_P1;SDS_P2;PMS_P1;PMS_P2;Temp;Humidity;BMP_temperature;BMP_pressure;BME280_temperature;BME280_humidity;BME280_pressure;Samples;Min_cycle;Max_cycle;Signal;HPM_P1;HPM_P2
2021/12/17 00:01:51;;;;;;;12.16;6.84;;;;;;;4.38;97.02;101405.44;2280234;68;22728;-80
2021/12/17 00:04:53;;;;;;;12.04;7.07;;;;;;;4.44;97.06;101413.47;2286532;70;20862;-79
2021/12/17 00:07:56;;;;;;;12.25;6.59;;;;;;;4.54;97.33;101408.91;2284840;70;20395;-79
2021/12/17 00:10:58;;;;;;;18.20;9.86;;;;;;;4.64;97.54;101397.38;2285119;70;20412;-79
2021/12/17 00:14:01;;;;;;;15.55;9.55;;;;;;;4.76;97.89;101410.00;2285940;70;20394;-79
2021/12/17 00:17:08;;;;;;;13.18;8.89;;;;;;;4.87;98.25;101405.44;2284531;68;26092;-79
2021/12/17 00:46:36;;;;;;;13.60;8.94;;;;;;;6.17;98.17;101391.97;2280457;70;21180;-79
2021/12/17 01:17:08;;;;;;;11.74;7.55;;;;;;;6.98;95.19;101383.50;2281976;70;20759;-78
2021/12/17 01:41:26;;;;;;;;;;;;;;;;;;;;;
2021/12/17 01:44:10;;;;;;;7.69;6.59;;;;;;;7.35;92.63;101383.31;2268895;70;20381;-78
2021/12/17 01:47:14;;;;;;;7.24;5.84;;;;;;;7.38;92.26;101374.81;2272907;67;163591;-78
2021/12/17 01:59:20;;;;;;;7.54;6.00;;;;;;;7.44;91.61;101380.22;2272306;70;20299;-78
2021/12/17 02:00:36;;;;;;;6.84;5.44;;;;;;;7.45;91.33;101380.28;2281036;70;20303;-78
2021/12/17 02:03:39;;;;;;;6.97;5.59;;;;;;;7.47;91.16;101376.06;2274914;70;20445;-78
2021/12/17 02:06:42;;;;;;;5.21;4.72;;;;;;;7.48;90.97;101371.78;2274487;70;20779;-78
2021/12/17 02:20:20;;;;;;;4.89;3.80;;;;;;;7.50;90.51;101371.00;2275064;70;20308;-78
2021/12/17 02:33:27;;;;;;;7.59;4.47;;;;;;;7.54;90.30;101362.56;2275291;70;20319;-78
2021/12/17 02:36:33;;;;;;;5.81;5.11;;;;;;;7.55;90.34;101360.88;2276343;70;21233;-78
2021/12/17 02:40:06;;;;;;;3.95;3.54;;;;;;;7.57;90.24;101347.19;2275050;70;21107;-79
2021/12/17 02:46:25;;;;;;;3.95;3.28;;;;;;;7.58;89.97;101361.00;2272721;67;54044;-79
2021/12/17 02:49:29;;;;;;;3.41;3.11;;;;;;;7.58;90.07;101358.41;2272543;70;21079;-78
2021/12/17 02:52:36;;;;;;;4.71;3.92;;;;;;;7.60;90.07;101353.28;2275742;70;20386;-78
2021/12/17 02:55:42;;;;;;;4.94;3.58;;;;;;;7.60;90.01;101356.75;2272682;70;20844;-78
2021/12/17 02:58:45;;;;;;;3.90;3.34;;;;;;;7.58;89.98;101354.13;2274165;70;20377;-78
2021/12/17 03:01:49;;;;;;;4.50;3.45;;;;;;;7.60;89.99;101351.59;2275653;67;54981;-78
2021/12/17 03:04:51;;;;;;;4.25;3.45;;;;;;;7.62;89.90;101346.47;2282227;70;20368;-78
2021/12/17 03:07:55;;;;;;;4.25;3.06;;;;;;;7.62;89.91;101342.19;2268214;70;20303;-78
2021/12/17 03:10:59;;;;;;;3.45;3.15;;;;;;;7.63;89.86;101343.06;2276562;70;20729;-79
2021/12/17 03:14:02;;;;;;;5.14;3.22;;;;;;;7.63;89.85;101336.19;2278924;70;20401;-78
2021/12/17 03:17:09;;;;;;;3.17;2.96;;;;;;;7.65;89.86;101342.28;2280052;70;20893;-78
2021/12/17 03:23:41;;;;;;;9.88;5.61;;;;;;;7.65;89.75;101329.38;2282361;70;20334;-79
2021/12/17 03:26:43;;;;;;;7.53;5.40;;;;;;;7.66;89.80;101335.41;2268410;70;21257;-78
2021/12/17 03:29:46;;;;;;;5.57;4.31;;;;;;;7.67;89.86;101330.31;2277619;70;20346;-79
2021/12/17 03:32:48;;;;;;;5.19;4.13;;;;;;;7.69;89.82;101327.78;2281466;70;20287;-78
2021/12/17 03:35:52;;;;;;;4.65;3.86;;;;;;;7.69;89.74;101326.06;2280360;70;20316;-78
2021/12/17 03:38:55;;;;;;;3.66;3.39;;;;;;;7.70;89.66;101334.72;2281956;70;20340;-78
2021/12/17 03:42:00;;;;;;;4.34;3.19;;;;;;;7.68;89.70;101334.66;2282393;70;20303;-78
2021/12/17 03:45:03;;;;;;;3.14;2.63;;;;;;;7.67;89.64;101332.88;2275162;70;21230;-78
2021/12/17 03:48:07;;;;;;;3.44;3.11;;;;;;;7.67;89.75;101332.88;2276150;70;20353;-78
2021/12/17 03:51:15;;;;;;;3.10;2.84;;;;;;;7.69;89.77;101338.13;2282671;70;20412;-78
2021/12/17 03:54:18;;;;;;;2.86;2.54;;;;;;;7.69;89.77;101340.69;2282198;70;20806;-78
2021/12/17 03:57:22;;;;;;;4.32;2.86;;;;;;;7.69;89.58;101330.34;2280853;70;20184;-78
2021/12/17 04:00:26;;;;;;;3.25;2.20;;;;;;;7.69;89.38;101331.25;2275329;70;20410;-78
2021/12/17 04:03:28;;;;;;;4.64;2.97;;;;;;;7.70;89.13;101345.06;2277747;70;20331;-78
2021/12/17 04:06:31;;;;;;;3.89;3.17;;;;;;;7.70;88.87;101329.53;2276532;70;20434;-78
2021/12/17 04:09:34;;;;;;;3.97;2.74;;;;;;;7.72;88.66;101335.66;2277180;70;20353;-78
2021/12/17 04:16:14;;;;;;;4.47;3.33;;;;;;;7.72;88.09;101331.38;2271292;67;20785;-79
2021/12/17 04:19:15;;;;;;;4.34;3.01;;;;;;;7.73;87.83;101333.16;2281403;70;20389;-78
2021/12/17 04:22:20;;;;;;;3.14;2.94;;;;;;;7.74;87.64;101321.09;2280917;70;20781;-79
2021/12/17 04:25:23;;;;;;;3.28;2.78;;;;;;;7.74;87.50;101315.94;2274828;70;20302;-78
2021/12/17 04:28:26;;;;;;;3.92;3.06;;;;;;;7.74;87.30;101318.50;2275242;70;20311;-78
2021/12/17 04:31:29;;;;;;;4.61;2.91;;;;;;;7.74;86.99;101314.22;2274941;70;20342;-78
2021/12/17 04:34:33;;;;;;;4.28;2.83;;;;;;;7.76;86.56;101316.88;2276062;70;20303;-78
2021/12/17 04:37:35;;;;;;;6.63;4.82;;;;;;;7.75;86.18;101310.81;2282198;70;20283;-78
2021/12/17 04:40:41;;;;;;;6.30;4.26;;;;;;;7.78;85.59;101310.03;2280893;70;20718;-79
2021/12/17 04:57:32;;;;;;;3.21;2.90;;;;;;;7.76;83.79;101298.75;2281870;70;20386;-78
2021/12/17 05:00:34;;;;;;;3.86;3.34;;;;;;;7.76;83.50;101299.66;2280416;70;20408;-79
2021/12/17 05:03:37;;;;;;;5.64;3.58;;;;;;;7.77;83.13;101295.34;2278031;70;20320;-78
2021/12/17 05:06:40;;;;;;;2.56;2.36;;;;;;;7.74;82.57;101296.13;2276258;70;20331;-79
2021/12/17 05:09:59;;;;;;;3.24;2.94;;;;;;;7.74;82.21;101297.81;2273601;70;20330;-78
2021/12/17 05:19:50;;;;;;;2.78;2.38;;;;;;;7.74;82.06;101298.72;2275219;70;20176;-78
2021/12/17 05:22:59;;;;;;;3.74;3.09;;;;;;;7.71;82.11;101305.44;2274789;70;20312;-79
2021/12/17 05:26:04;;;;;;;3.56;2.83;;;;;;;7.71;82.15;101306.31;2274439;70;20371;-78
2021/12/17 05:29:07;;;;;;;2.80;2.59;;;;;;;7.70;82.04;101299.38;2271383;70;20156;-79
2021/12/17 05:32:11;;;;;;;2.56;2.36;;;;;;;7.66;81.66;101306.97;2278355;70;20418;-78
2021/12/17 05:35:16;;;;;;;2.88;2.44;;;;;;;7.63;81.23;101300.00;2274919;70;20338;-79
2021/12/17 05:38:30;;;;;;;2.76;2.45;;;;;;;7.63;81.17;101310.34;2276075;70;20340;-79
2021/12/17 05:41:33;;;;;;;2.39;2.19;;;;;;;7.61;81.19;101311.09;2275576;70;20897;-78
2021/12/17 05:44:37;;;;;;;2.46;2.08;;;;;;;7.58;80.67;101311.88;2273901;70;20288;-79
2021/12/17 05:47:42;;;;;;;2.31;2.00;;;;;;;7.52;80.00;101309.03;2268771;70;20296;-78
2021/12/17 05:50:47;;;;;;;2.01;1.81;;;;;;;7.47;79.42;101316.63;2274080;70;20611;-79
2021/12/17 05:53:49;;;;;;;3.04;2.05;;;;;;;7.44;79.71;101319.09;2278219;70;20362;-78
2021/12/17 05:57:07;;;;;;;2.04;1.91;;;;;;;7.42;79.60;101319.84;2273139;70;20316;-79
2021/12/17 06:00:11;;;;;;;3.53;2.48;;;;;;;7.37;79.25;101326.56;2269933;70;20377;-79
2021/12/17 06:03:15;;;;;;;2.54;2.01;;;;;;;7.32;79.26;101323.75;2270738;70;20242;-79
2021/12/17 06:06:32;;;;;;;2.17;2.01;;;;;;;7.31;79.22;101329.75;2274902;70;20345;-79
2021/12/17 06:09:47;;;;;;;2.61;2.41;;;;;;;7.30;79.41;101329.69;2265413;70;20401;-79
2021/12/17 06:13:04;;;;;;;3.75;2.97;;;;;;;7.30;79.56;101333.16;2275483;70;20834;-79
2021/12/17 06:16:17;;;;;;;3.79;2.66;;;;;;;7.30;79.33;101330.56;2280968;70;20302;-79
2021/12/17 06:19:22;;;;;;;3.36;2.94;;;;;;;7.32;79.33;101333.22;2278479;70;20327;-79
2021/12/17 06:22:25;;;;;;;3.64;3.21;;;;;;;7.33;79.37;101338.44;2281646;70;20381;-78
2021/12/17 06:25:38;;;;;;;5.34;3.41;;;;;;;7.34;79.82;101344.50;2267182;70;21230;-79
2021/12/17 06:28:41;;;;;;;4.10;3.30;;;;;;;7.34;79.89;101334.16;2263414;70;20368;-78
2021/12/17 06:35:54;;;;;;;5.05;3.54;;;;;;;7.32;80.24;101340.97;2284356;69;20314;-78
2021/12/17 06:38:58;;;;;;;5.05;3.14;;;;;;;7.31;80.31;101336.63;2282410;70;21260;-78
2021/12/17 06:42:04;;;;;;;4.86;3.71;;;;;;;7.28;80.29;101332.22;2276854;70;20298;-79
2021/12/17 06:45:17;;;;;;;4.07;3.38;;;;;;;7.27;80.31;101340.78;2280707;70;20299;-79
2021/12/17 06:48:24;;;;;;;5.93;3.96;;;;;;;7.24;80.40;101338.09;2277450;70;20395;-79
2021/12/17 06:59:43;;;;;;;3.63;2.78;;;;;;;7.10;80.04;101342.69;2280423;70;20462;-79
2021/12/17 08:09:49;;;;;;;5.39;3.76;;;;;;;6.66;82.35;101390.78;2278964;70;20661;-79
2021/12/17 08:13:36;;;;;;;6.50;3.72;;;;;;;6.66;82.20;101393.34;2261269;70;20308;-79
2021/12/17 08:17:46;;;;;;;4.00;3.58;;;;;;;6.71;82.12;101397.81;2270265;70;20284;-79
2021/12/17 08:31:58;;;;;;;6.59;4.21;;;;;;;6.83;81.74;101404.41;2272083;70;20678;-84
2021/12/17 08:35:01;;;;;;;4.56;4.07;;;;;;;6.91;81.50;101404.72;2259414;70;20757;-77
2021/12/17 08:38:06;;;;;;;4.47;4.07;;;;;;;6.96;81.33;101410.97;2264499;70;20333;-79
2021/12/17 08:41:09;;;;;;;5.26;4.14;;;;;;;6.96;81.05;101416.13;2264997;70;20301;-77
2021/12/17 08:44:12;;;;;;;6.44;4.53;;;;;;;7.00;80.66;101410.25;2263497;70;21825;-77
2021/12/17 08:47:14;;;;;;;5.96;4.30;;;;;;;7.05;80.71;101403.63;2262573;67;20830;-78
2021/12/17 08:50:19;;;;;;;4.54;3.97;;;;;;;7.10;80.32;101396.94;2263832;70;20337;-78
2021/12/17 08:53:21;;;;;;;5.25;3.64;;;;;;;7.13;79.86;101409.09;2263620;70;20325;-78
2021/12/17 08:56:34;;;;;;;6.29;3.67;;;;;;;7.16;79.80;101410.09;2264065;70;20404;-78
2021/12/17 08:59:37;;;;;;;4.86;3.81;;;;;;;7.23;79.59;101406.09;2259252;70;20293;-77
2021/12/17 09:02:41;;;;;;;5.32;4.25;;;;;;;7.31;79.20;101404.69;2264001;68;27002;-80
2021/12/17 09:05:47;;;;;;;5.94;4.01;;;;;;;7.44;78.75;101403.50;2264330;70;21566;-77
2021/12/17 09:08:54;;;;;;;5.19;3.58;;;;;;;7.54;77.99;101403.94;2264885;70;20321;-77
2021/12/17 09:11:58;;;;;;;4.83;3.50;;;;;;;7.69;77.74;101406.22;2263328;70;20341;-79
2021/12/17 09:15:01;;;;;;;5.60;3.55;;;;;;;7.96;77.15;101410.72;2254558;70;20212;-78
2021/12/17 09:18:03;;;;;;;4.99;3.21;;;;;;;8.17;75.88;101408.94;2264994;70;20325;-78
2021/12/17 09:21:06;;;;;;;4.30;3.75;;;;;;;8.41;74.86;101407.28;2265510;70;20316;-78
2021/12/17 09:24:10;;;;;;;3.44;3.08;;;;;;;8.58;73.52;101394.97;2269684;70;20304;-78
2021/12/17 09:27:13;;;;;;;4.34;3.42;;;;;;;8.75;72.88;101404.22;2263040;70;20361;-78
2021/12/17 09:30:18;;;;;;;3.06;2.76;;;;;;;8.85;71.69;101412.31;2267578;70;20386;-78
2021/12/17 09:33:21;;;;;;;4.26;3.14;;;;;;;8.86;71.49;101407.19;2263698;68;26736;-78
2021/12/17 09:36:24;;;;;;;4.14;3.10;;;;;;;8.81;71.17;101418.22;2263970;70;20469;-78
2021/12/17 09:39:27;;;;;;;3.16;2.96;;;;;;;8.70;71.48;101410.94;2268630;70;20325;-78
2021/12/17 09:42:29;;;;;;;3.39;3.09;;;;;;;8.66;71.74;101411.66;2263040;70;20329;-78
2021/12/17 09:45:32;;;;;;;4.20;3.24;;;;;;;8.69;71.96;101406.59;2262908;67;21934;-78
2021/12/17 09:48:37;;;;;;;6.18;3.86;;;;;;;8.72;71.75;101408.41;2263697;70;20761;-78
2021/12/17 09:51:41;;;;;;;7.85;3.34;;;;;;;8.74;71.79;101410.22;2260491;70;20910;-78
2021/12/17 09:54:44;;;;;;;3.55;3.17;;;;;;;8.70;71.63;101407.47;2259169;70;20320;-78
2021/12/17 09:57:46;;;;;;;5.41;3.78;;;;;;;8.81;71.87;101403.56;2258220;70;20363;-78
2021/12/17 10:00:49;;;;;;;4.13;3.25;;;;;;;8.98;72.06;101410.22;2263929;70;20374;-78
2021/12/17 10:04:12;;;;;;;3.46;3.16;;;;;;;8.99;71.10;101408.50;2263988;70;20808;-77
2021/12/17 10:07:22;;;;;;;3.72;3.28;;;;;;;8.88;70.81;101410.72;2264461;70;21221;-78
2021/12/17 10:10:43;;;;;;;4.85;3.10;;;;;;;8.79;71.36;101411.25;2264026;70;20805;-78
2021/12/17 10:13:47;;;;;;;3.76;3.22;;;;;;;8.70;71.77;101402.28;2266061;70;20222;-78
2021/12/17 10:16:51;;;;;;;3.05;2.76;;;;;;;8.59;72.03;101399.31;2263125;70;20314;-77
2021/12/17 10:19:56;;;;;;;2.84;2.58;;;;;;;8.50;71.91;101408.47;2264852;70;21062;-78
2021/12/17 10:23:04;;;;;;;3.19;2.90;;;;;;;8.44;72.59;101412.59;2265615;70;20216;-78
2021/12/17 10:26:11;;;;;;;3.28;3.01;;;;;;;8.35;72.71;101411.38;2260718;70;20321;-78
2021/12/17 10:29:23;;;;;;;3.64;3.20;;;;;;;8.31;72.86;101417.22;2261059;70;20330;-78
2021/12/17 10:32:28;;;;;;;3.22;2.42;;;;;;;8.30;73.02;101418.94;2256757;68;21345;-79
2021/12/17 10:35:44;;;;;;;3.10;2.76;;;;;;;8.27;72.91;101421.41;2256221;70;21432;-78
2021/12/17 10:38:47;;;;;;;6.78;2.95;;;;;;;8.23;73.45;101419.50;2265444;70;20906;-78
2021/12/17 10:41:52;;;;;;;3.41;3.10;;;;;;;8.24;73.59;101408.34;2265429;70;20338;-79
2021/12/17 10:45:06;;;;;;;3.64;3.34;;;;;;;8.27;73.31;101424.00;2264621;70;20296;-79
2021/12/17 10:48:34;;;;;;;3.88;2.95;;;;;;;8.26;73.01;101409.31;2262012;70;20850;-79
2021/12/17 10:55:05;;;;;;;3.70;2.90;;;;;;;8.28;72.69;101397.31;2265926;70;20860;-79
2021/12/17 10:58:15;;;;;;;4.06;2.59;;;;;;;8.31;71.99;101404.28;2259713;70;20324;-78
2021/12/17 11:01:27;;;;;;;2.56;2.36;;;;;;;8.31;72.23;101401.72;2259249;70;20336;-78
2021/12/17 11:04:41;;;;;;;2.79;2.42;;;;;;;8.29;71.90;101409.41;2265248;70;20336;-79
2021/12/17 11:07:46;;;;;;;2.71;2.42;;;;;;;8.27;71.94;101402.44;2260319;70;20816;-78
2021/12/17 11:10:58;;;;;;;2.60;2.40;;;;;;;8.26;71.38;101400.63;2260998;70;20346;-79
2021/12/17 11:14:25;;;;;;;3.20;2.09;;;;;;;8.26;71.37;101396.38;2251205;71;20331;-78
2021/12/17 11:17:31;;;;;;;2.50;2.30;;;;;;;8.27;71.79;101389.50;2245793;71;20361;-78
2021/12/17 11:20:40;;;;;;;2.55;2.34;;;;;;;8.28;71.83;101388.66;2251475;71;20263;-79
2021/12/17 11:23:45;;;;;;;2.20;1.98;;;;;;;8.31;71.94;101383.59;2251170;71;20421;-79
2021/12/17 11:26:54;;;;;;;3.37;2.42;;;;;;;8.34;72.01;101375.97;2253972;71;20307;-80
2021/12/17 11:30:09;;;;;;;2.30;2.20;;;;;;;8.36;71.50;101372.59;2256700;71;20154;-79
2021/12/17 11:33:18;;;;;;;2.96;2.42;;;;;;;8.39;71.19;101374.41;2266090;70;20319;-79
2021/12/17 11:36:23;;;;;;;2.72;2.39;;;;;;;8.42;71.19;101370.22;2265301;70;20310;-79
2021/12/17 11:39:37;;;;;;;4.18;2.28;;;;;;;8.44;71.05;101365.13;2260623;70;20495;-79
2021/12/17 11:43:15;;;;;;;2.80;2.59;;;;;;;8.48;70.82;101370.47;2246528;71;20814;-79
2021/12/17 11:46:27;;;;;;;2.58;2.26;;;;;;;8.54;71.20;101371.50;2256872;71;20315;-79
2021/12/17 11:49:36;;;;;;;3.09;2.60;;;;;;;8.58;70.76;101378.53;2254789;71;20329;-79
2021/12/17 11:52:56;;;;;;;2.86;2.47;;;;;;;8.61;70.72;101361.41;2235613;71;20353;-79
2021/12/17 11:56:03;;;;;;;2.70;2.30;;;;;;;8.66;70.48;101365.06;2234385;71;20302;-79
2021/12/17 11:59:34;;;;;;;2.25;2.05;;;;;;;8.71;70.31;101363.50;2231194;72;20417;-80
2021/12/17 12:02:47;;;;;;;2.01;1.91;;;;;;;8.75;70.45;101362.78;2236879;71;20777;-80
2021/12/17 12:05:56;;;;;;;2.53;2.01;;;;;;;8.80;70.44;101362.94;2226266;72;20310;-80
2021/12/17 12:09:04;;;;;;;2.64;2.10;;;;;;;8.82;69.73;101365.59;2224966;71;20464;-81
2021/12/17 12:12:15;;;;;;;3.72;1.86;;;;;;;8.83;69.67;101357.88;2226231;72;20350;-80
2021/12/17 12:15:30;;;;;;;3.14;2.16;;;;;;;8.85;68.99;101356.22;2232190;71;20370;-80
2021/12/17 12:18:54;;;;;;;2.40;2.20;;;;;;;8.87;68.97;101358.84;2233208;71;20436;-80
2021/12/17 12:22:09;;;;;;;3.26;2.10;;;;;;;8.90;69.06;101361.53;2233877;72;20360;-80
2021/12/17 12:25:29;;;;;;;2.49;2.06;;;;;;;8.92;68.38;101359.88;2249009;71;20418;-80
2021/12/17 12:28:49;;;;;;;2.14;1.92;;;;;;;8.93;68.59;101359.94;2250161;71;20315;-81
2021/12/17 12:32:20;;;;;;;3.60;2.44;;;;;;;8.97;68.91;101361.78;2253807;71;21487;-80
2021/12/17 12:35:24;;;;;;;3.33;2.08;;;;;;;8.98;68.24;101361.00;2253321;71;20838;-80
2021/12/17 12:38:32;;;;;;;2.78;2.26;;;;;;;8.99;67.83;101348.91;2244379;71;20341;-80
2021/12/17 12:42:02;;;;;;;2.45;2.25;;;;;;;9.01;68.27;101348.13;2258121;71;20305;-80
2021/12/17 12:45:12;;;;;;;3.53;2.40;;;;;;;9.00;68.69;101355.84;2255234;71;20162;-80
2021/12/17 12:48:39;;;;;;;3.66;2.17;;;;;;;9.02;69.22;101359.38;2246203;71;33303;-80
2021/12/17 12:51:41;;;;;;;2.33;1.96;;;;;;;9.02;68.51;101355.06;2239870;71;20314;-80
2021/12/17 12:55:06;;;;;;;3.44;2.00;;;;;;;9.04;68.39;101352.53;2233849;71;20389;-80
2021/12/17 12:58:28;;;;;;;2.10;1.90;;;;;;;9.03;67.44;101355.94;2234592;71;20451;-80
2021/12/17 13:01:42;;;;;;;3.55;2.06;;;;;;;9.04;67.92;101339.56;2236678;69;20365;-80
2021/12/17 13:04:55;;;;;;;3.03;2.05;;;;;;;9.03;67.81;101343.00;2231402;72;20311;-80
2021/12/17 13:08:03;;;;;;;2.90;2.20;;;;;;;9.03;67.74;101333.50;2228363;72;21545;-80
2021/12/17 13:11:07;;;;;;;3.04;2.14;;;;;;;9.04;68.00;101339.56;2244811;71;20565;-80
2021/12/17 13:14:17;;;;;;;4.06;2.60;;;;;;;9.02;68.55;101334.34;2247597;71;20155;-80
2021/12/17 13:20:05;;;;;;;2.16;1.99;;;;;;;9.04;68.57;101336.97;2246768;71;20859;-81
2021/12/17 13:24:34;;;;;;;2.09;1.52;;;;;;;8.99;67.54;101328.19;2253025;71;20301;-81
2021/12/17 13:27:36;;;;;;;1.84;1.65;;;;;;;8.97;67.34;101335.00;2253519;71;20320;-81
2021/12/17 13:30:39;;;;;;;2.42;1.89;;;;;;;8.97;67.64;101338.47;2258611;68;29510;-80
2021/12/17 13:33:42;;;;;;;2.10;1.88;;;;;;;8.94;67.80;101333.19;2267134;71;20307;-81
2021/12/17 13:36:58;;;;;;;4.64;1.75;;;;;;;8.93;68.13;101333.13;2268616;71;20259;-81
2021/12/17 13:40:08;;;;;;;2.84;2.00;;;;;;;8.92;67.89;101327.06;2267811;70;20253;-80
2021/12/17 13:43:11;;;;;;;2.25;2.05;;;;;;;8.90;68.42;101320.97;2268472;71;20683;-80
2021/12/17 13:46:14;;;;;;;2.80;2.24;;;;;;;8.87;68.21;101323.47;2268024;68;28249;-81
2021/12/17 13:49:19;;;;;;;2.64;1.92;;;;;;;8.82;68.02;101312.06;2267372;71;21353;-81
2021/12/17 13:52:25;;;;;;;3.74;1.98;;;;;;;8.81;67.86;101312.91;2264724;71;20781;-81
2021/12/17 13:55:40;;;;;;;4.50;2.26;;;;;;;8.79;68.51;101315.41;2267508;71;20314;-81
2021/12/17 13:58:42;;;;;;;2.61;2.14;;;;;;;8.78;68.70;101310.19;2268335;71;20324;-81
2021/12/17 14:01:45;;;;;;;3.96;2.55;;;;;;;8.74;68.74;101316.97;2270912;71;20318;-81
2021/12/17 14:05:05;;;;;;;3.51;2.19;;;;;;;8.72;68.72;101321.22;2269202;71;20328;-81
2021/12/17 14:08:10;;;;;;;2.86;2.42;;;;;;;8.69;68.73;101321.13;2269676;71;20302;-81
2021/12/17 14:11:34;;;;;;;3.79;2.34;;;;;;;8.65;68.92;101321.88;2269378;71;20306;-80
2021/12/17 14:15:06;;;;;;;4.47;2.54;;;;;;;8.63;69.15;101333.88;2269914;71;20360;-80
2021/12/17 14:18:09;;;;;;;4.24;2.46;;;;;;;8.60;69.19;101328.56;2269424;68;30452;-80
2021/12/17 14:21:12;;;;;;;2.88;2.30;;;;;;;8.59;69.26;101325.94;2268446;71;20302;-79
2021/12/17 14:24:28;;;;;;;3.89;3.22;;;;;;;8.57;69.33;101330.19;2268914;71;20320;-80
2021/12/17 14:27:44;;;;;;;3.30;2.88;;;;;;;8.51;69.98;101324.78;2270525;71;20294;-80
2021/12/17 14:31:14;;;;;;;3.50;3.14;;;;;;;8.47;70.09;101321.22;2270373;68;27852;-80
2021/12/17 14:34:17;;;;;;;4.14;3.19;;;;;;;8.40;70.59;101325.28;2269341;71;20306;-80
2021/12/17 14:37:20;;;;;;;4.43;3.30;;;;;;;8.36;70.70;101328.59;2271301;71;20314;-80
2021/12/17 14:40:33;;;;;;;4.07;3.46;;;;;;;8.32;71.10;101325.81;2274030;71;20314;-80
2021/12/17 14:43:40;;;;;;;3.50;2.81;;;;;;;8.25;71.22;101324.69;2268396;70;20359;-80
2021/12/17 14:46:55;;;;;;;4.90;3.21;;;;;;;8.18;71.49;101325.31;2270797;71;20333;-80
2021/12/17 15:00:22;;;;;;;3.06;2.76;;;;;;;7.96;72.14;101321.06;2268599;71;20339;-80
2021/12/17 15:03:39;;;;;;;4.46;3.95;;;;;;;7.91;72.17;101330.38;2269972;68;35173;-79
2021/12/17 15:06:42;;;;;;;4.35;3.94;;;;;;;7.84;72.37;101315.44;2269878;71;20776;-80
2021/12/17 15:09:46;;;;;;;4.75;4.09;;;;;;;7.78;72.59;101316.09;2267733;71;20404;-79
2021/12/17 15:13:05;;;;;;;5.23;3.79;;;;;;;7.72;73.07;101312.38;2269275;71;20290;-80
2021/12/17 15:16:08;;;;;;;3.92;3.54;;;;;;;7.65;73.42;101320.72;2271625;68;30926;-79
2021/12/17 15:19:10;;;;;;;4.97;3.61;;;;;;;7.53;73.89;101316.84;2269126;71;20306;-80
2021/12/17 15:22:13;;;;;;;4.21;3.34;;;;;;;7.46;74.04;101330.34;2270034;71;20314;-80
2021/12/17 15:25:17;;;;;;;3.97;3.51;;;;;;;7.38;74.06;101316.28;2270034;71;20306;-80
2021/12/17 15:28:22;;;;;;;3.71;3.26;;;;;;;7.27;74.34;101315.84;2270508;70;20341;-80
2021/12/17 15:31:26;;;;;;;3.67;3.03;;;;;;;7.16;74.51;101324.84;2273543;70;20243;-80
2021/12/17 15:46:51;;;;;;;6.66;3.34;;;;;;;6.82;76.68;101337.19;2271275;70;21312;-80
2021/12/17 15:59:49;;;;;;;3.96;2.72;;;;;;;6.63;77.42;101358.75;2287031;69;20812;-80
2021/12/17 16:07:29;;;;;;;4.01;2.80;;;;;;;6.40;77.79;101356.88;2281212;70;20468;-80
2021/12/17 16:25:22;;;;;;;4.46;2.53;;;;;;;6.25;78.43;101369.97;2289937;69;20313;-79
2021/12/17 17:14:10;;;;;;;4.93;3.54;;;;;;;5.74;80.31;101390.88;2269927;70;20363;-81
2021/12/17 17:54:15;;;;;;;6.93;3.72;;;;;;;4.66;84.19;101387.16;2285603;70;20298;-79
2021/12/17 19:30:21;;;;;;;6.41;3.49;;;;;;;4.58;85.97;101404.81;2271730;69;20317;-80
2021/12/17 19:41:50;;;;;;;3.49;3.00;;;;;;;4.71;85.95;101390.88;2274879;70;20369;-78
2021/12/17 19:44:57;;;;;;;5.44;3.10;;;;;;;4.76;85.88;101386.84;2285351;70;20387;-78
2021/12/17 19:56:00;;;;;;;4.09;3.24;;;;;;;5.01;85.51;101397.56;2286226;69;20325;-78
2021/12/17 19:59:26;;;;;;;3.09;2.84;;;;;;;5.09;85.38;101392.81;2282880;70;20608;-78
2021/12/17 20:02:29;;;;;;;3.67;2.92;;;;;;;5.15;85.55;101391.41;2283026;67;37845;-78
2021/12/17 20:05:33;;;;;;;3.08;2.79;;;;;;;5.22;85.52;101395.19;2285523;70;20306;-78
2021/12/17 20:08:37;;;;;;;3.01;2.60;;;;;;;5.27;85.53;101388.56;2279207;70;20350;-78
2021/12/17 20:11:40;;;;;;;3.40;2.59;;;;;;;5.31;85.38;101387.03;2277954;70;20325;-78
2021/12/17 20:14:46;;;;;;;2.89;2.66;;;;;;;5.39;85.53;101381.44;2282086;70;21274;-78
2021/12/17 20:17:50;;;;;;;3.20;2.80;;;;;;;5.42;85.64;101376.44;2279657;70;20358;-78
2021/12/17 20:20:54;;;;;;;2.86;2.49;;;;;;;5.48;85.96;101378.41;2281737;70;20391;-78
2021/12/17 20:23:57;;;;;;;5.24;3.51;;;;;;;5.52;86.20;101380.31;2276781;70;20446;-78
2021/12/17 20:27:00;;;;;;;2.63;2.42;;;;;;;5.55;86.27;101375.31;2283980;70;20285;-78
2021/12/17 20:30:12;;;;;;;3.95;2.70;;;;;;;5.61;86.37;101383.34;2282768;70;20298;-78
2021/12/17 20:33:15;;;;;;;2.49;2.30;;;;;;;5.66;86.50;101381.00;2274425;68;26150;-78
2021/12/17 20:36:20;;;;;;;3.24;2.41;;;;;;;5.71;86.56;101382.97;2285623;70;20301;-78
2021/12/17 20:39:23;;;;;;;3.00;2.33;;;;;;;5.75;86.55;101382.31;2284674;70;20374;-78
2021/12/17 20:42:47;;;;;;;2.44;2.24;;;;;;;5.78;86.67;101383.28;2285176;70;21104;-77
2021/12/17 20:45:49;;;;;;;3.01;2.35;;;;;;;5.82;86.66;101388.63;2278795;68;33442;-78
2021/12/17 20:48:53;;;;;;;2.50;2.31;;;;;;;5.86;86.64;101379.34;2285415;70;20737;-78
2021/12/17 20:51:56;;;;;;;4.11;2.81;;;;;;;5.87;86.87;101376.81;2284313;70;20455;-78
2021/12/17 20:55:00;;;;;;;2.95;2.74;;;;;;;5.91;86.90;101381.34;2285979;70;20439;-78
2021/12/17 20:58:04;;;;;;;6.16;3.72;;;;;;;5.94;86.97;101378.94;2286377;70;20596;-78
2021/12/17 21:01:06;;;;;;;3.02;2.67;;;;;;;5.98;87.02;101378.25;2251872;70;1803224;-78
2021/12/17 21:04:10;;;;;;;3.35;2.80;;;;;;;6.02;86.85;101385.31;2279141;70;20902;-77
2021/12/17 21:07:12;;;;;;;3.01;2.21;;;;;;;6.04;86.73;101381.09;2271507;70;20331;-78
2021/12/17 21:10:16;;;;;;;2.45;2.20;;;;;;;6.07;86.49;101382.94;2283999;70;20321;-78
2021/12/17 21:13:19;;;;;;;3.76;2.67;;;;;;;6.10;86.38;101380.50;2279784;70;20322;-78
2021/12/17 21:16:22;;;;;;;2.58;2.20;;;;;;;6.12;86.19;101383.16;2284860;67;24676;-78
2021/12/17 21:19:26;;;;;;;2.17;1.55;;;;;;;6.13;86.10;101379.78;2279689;70;20309;-77
2021/12/17 21:22:29;;;;;;;2.30;1.81;;;;;;;6.14;85.60;101373.81;2278876;70;20694;-77
2021/12/17 21:25:32;;;;;;;2.26;2.05;;;;;;;6.16;85.30;101375.63;2284790;70;21369;-78
2021/12/17 21:29:01;;;;;;;1.94;1.73;;;;;;;6.17;85.14;101376.50;2284111;70;20778;-78
2021/12/17 21:32:54;;;;;;;2.19;2.08;;;;;;;6.18;84.91;101379.16;2291559;70;21362;-79
2021/12/17 21:36:24;;;;;;;4.04;2.33;;;;;;;6.19;84.85;101367.16;2281401;70;20319;-77
2021/12/17 21:39:30;;;;;;;1.69;1.51;;;;;;;6.19;84.72;101370.59;2287901;70;20333;-78
2021/12/17 21:42:33;;;;;;;2.94;1.51;;;;;;;6.20;84.49;101379.22;2278297;70;20461;-78
2021/12/17 21:45:37;;;;;;;2.25;1.61;;;;;;;6.21;84.13;101373.25;2284156;68;25084;-78
2021/12/17 21:48:42;;;;;;;1.38;1.23;;;;;;;6.24;83.88;101382.00;2277731;70;21126;-78
2021/12/17 21:56:06;;;;;;;;;;;;;;;6.26;83.37;101387.22;2269839;70;20296;-79
2021/12/17 21:59:09;;;;;;;1.75;1.29;;;;;;;6.28;83.17;101380.44;2279167;70;20059;-79
2021/12/17 22:02:13;;;;;;;1.73;1.63;;;;;;;6.29;82.95;101383.13;2278619;68;26824;-79
2021/12/17 22:09:36;;;;;;;1.41;1.31;;;;;;;6.33;82.44;101379.84;2284519;70;20360;-78
2021/12/17 22:12:39;;;;;;;1.51;1.40;;;;;;;6.33;82.40;101374.69;2280262;70;20346;-77
2021/12/17 22:15:42;;;;;;;3.19;1.85;;;;;;;6.34;82.38;101379.03;2282836;67;22529;-78
2021/12/17 22:18:46;;;;;;;1.74;1.64;;;;;;;6.33;82.20;101387.59;2279765;70;20318;-78
2021/12/17 22:21:58;;;;;;;1.94;1.66;;;;;;;6.34;82.03;101383.31;2284688;70;20337;-77
2021/12/17 22:25:00;;;;;;;2.25;1.73;;;;;;;6.35;81.99;101377.34;2280835;70;20771;-78
2021/12/17 22:28:05;;;;;;;3.13;2.00;;;;;;;6.35;81.94;101380.78;2284528;70;20313;-77
2021/12/17 22:31:08;;;;;;;2.22;2.00;;;;;;;6.34;82.02;101379.03;2283582;68;63715;-79
2021/12/17 22:34:21;;;;;;;2.00;1.85;;;;;;;6.35;81.76;101379.91;2285155;70;20327;-79
2021/12/17 22:42:33;;;;;;;2.44;2.20;;;;;;;6.29;81.46;101383.13;2287129;70;20796;-79
2021/12/17 22:50:22;;;;;;;2.08;1.83;;;;;;;6.15;81.25;101393.63;2283168;70;20353;-79
2021/12/17 22:54:20;;;;;;;2.90;2.09;;;;;;;6.11;81.20;101386.56;2286672;70;20302;-79
2021/12/17 22:57:22;;;;;;;2.89;2.11;;;;;;;6.06;81.21;101376.88;2290284;70;20305;-79
2021/12/17 23:00:46;;;;;;;3.29;2.10;;;;;;;6.02;81.13;101371.53;2286654;67;22063;-78